Aviation Digital Data Service (ADDS)

Output produced by TAFs form (1158 UTC 21 October 2014)
found at http://aviationweather.gov/adds/tafs/
 
KVEL 211120Z 2112/2212 28004KT P6SM VCSH BKN080 OVC100 
     FM211600 34006KT P6SM VCSH SCT050 BKN080 
     FM211900 02008KT P6SM SCT060 BKN100 
     FM220000 27005KT P6SM BKN200 
     FM220600 VRB03KT P6SM FEW200